Latest Weather Observations for Creal Reef

IDQ60801

Issued at 11:04 am EST Wednesday 28 January 2015 (issued every 30 minutes, with the page automatically refreshed every 10 minutes)

About weather observations | Map of weather stations | Latest weather observations for QLD | Other Formats
Station Details ID: 200736 Name: CREAL REEF Lat: -20.53 Lon: 150.38 Height: 1.7 m
Data from the previous 72 hours. | See also: Recent months for locations in Queensland
Date/Time
EST
Temp
°C
App
Temp
°C
Dew
Point
Rel
Hum
%
Delta-T
°C
Wind Press
QNH
hPa
Press
MSL
hPa
Rain
since 9 am
mm
Dir
 
Spd
km/h
Gust
km/h
Spd
kts
Gust
kts
28/11:00am 28.6 - - - - NW 9 11 5 6 1001.3 - -
28/10:30am 28.5 - - - - N 9 11 5 6 1001.3 - -
28/10:20am 28.4 - - - - N 7 - 4 - - 1001.2 -
28/10:00am 28.4 - - - - N 9 11 5 6 1001.6 - -
28/09:30am 28.3 - - - - N 9 11 5 6 1001.8 - -
28/09:20am 28.3 - - - - NNE 9 - 5 - - 1001.8 -
28/09:00am 28.3 - - - - NE 9 11 5 6 1001.8 - -
28/08:30am 28.1 - - - - NE 13 15 7 8 1001.7 - -
28/08:20am 28.2 - - - - NE 13 - 7 - - 1001.6 -
28/08:00am 28.3 - - - - NE 11 13 6 7 1001.6 - -
28/07:30am 28.2 - - - - NE 13 15 7 8 1001.5 - -
28/07:20am 28.3 - - - - ENE 13 - 7 - - 1001.5 -
28/07:00am 28.0 - - - - ENE 13 15 7 8 1001.5 - -
28/06:30am 28.0 - - - - ENE 9 13 5 7 1001.0 - -
28/06:20am 28.0 - - - - ENE 9 - 5 - - 1001.0 -
28/06:00am 27.8 - - - - NE 9 11 5 6 1001.0 - -
28/05:30am 27.8 - - - - NE 9 11 5 6 1000.6 - -
28/05:20am 27.8 - - - - NNE 9 - 5 - - 1000.5 -
28/05:00am 27.7 - - - - NNE 11 13 6 7 1000.2 - -
28/04:30am 27.8 - - - - NE 9 11 5 6 1000.0 - -
28/04:20am 27.8 - - - - NE 9 - 5 - - 1000.1 -
28/04:00am 27.8 - - - - NE 9 11 5 6 999.8 - -
28/03:30am 27.8 - - - - ENE 9 11 5 6 1000.0 - -
28/03:20am 27.9 - - - - ENE 11 - 6 - - 1000.0 -
28/03:00am 27.8 - - - - ENE 15 15 8 8 1000.0 - -
28/02:30am 27.9 - - - - ENE 15 17 8 9 1000.2 - -
28/02:20am 27.9 - - - - ENE 15 - 8 - - 1000.2 -
28/02:00am 28.0 - - - - ENE 15 17 8 9 1000.5 - -
28/01:30am 28.0 - - - - ENE 13 15 7 8 1001.0 - -
28/01:20am 28.0 - - - - E 15 - 8 - - 1001.2 -
28/01:00am 28.0 - - - - E 13 15 7 8 1001.3 - -
28/12:30am 28.0 - - - - E 13 15 7 8 1001.7 - -
28/12:20am 28.1 - - - - E 13 - 7 - - 1001.9 -
28/12:00am 28.1 - - - - ESE 11 13 6 7 1002.4 - -
 
Date/Time
EST
Temp
°C
App
Temp
°C
Dew
Point
Rel
Hum
%
Delta-T
°C
Wind Press
QNH
hPa
Press
MSL
hPa
Rain
since 9 am
mm
Dir
 
Spd
km/h
Gust
km/h
Spd
kts
Gust
kts
27/11:30pm 28.1 - - - - E 13 15 7 8 1002.8 - -
27/11:20pm 28.1 - - - - E 13 - 7 - - 1002.7 -
27/11:00pm 28.1 - - - - E 17 19 9 10 1002.6 - -
27/10:30pm 28.3 - - - - E 20 22 11 12 1002.7 - -
27/10:20pm 28.3 - - - - E 22 - 12 - - 1002.7 -
27/10:00pm 28.2 - - - - E 24 26 13 14 1002.8 - -
27/09:30pm 28.4 - - - - ESE 20 22 11 12 1003.0 - -
27/09:20pm 28.3 - - - - E 19 - 10 - - 1003.0 -
27/09:00pm 28.4 - - - - E 20 22 11 12 1002.7 - -
27/08:30pm 28.3 - - - - E 19 20 10 11 1002.8 - -
27/08:20pm 28.4 - - - - E 17 - 9 - - 1002.8 -
27/08:00pm 28.3 - - - - E 17 19 9 10 1002.6 - -
27/07:30pm 28.4 - - - - E 17 19 9 10 1002.1 - -
27/07:20pm 28.5 - - - - E 17 - 9 - - 1001.9 -
27/07:00pm 28.4 - - - - ESE 17 19 9 10 1001.7 - -
27/06:30pm 28.6 - - - - ESE 20 22 11 12 1000.9 - -
27/06:20pm 28.6 - - - - ESE 20 - 11 - - 1000.8 -
27/06:00pm 28.6 - - - - E 20 22 11 12 1000.6 - -
27/05:30pm 28.6 - - - - E 19 22 10 12 1000.6 - -
27/05:20pm 28.6 - - - - E 19 - 10 - - 1000.6 -
27/05:00pm 28.9 - - - - E 15 19 8 10 1000.6 - -
27/04:30pm 29.0 - - - - ESE 17 20 9 11 1000.4 - -
27/04:20pm 29.1 - - - - ESE 19 - 10 - - 1000.5 -
27/04:00pm 29.0 - - - - SSE 13 15 7 8 1000.6 - -
27/03:30pm 28.8 - - - - SSE 13 15 7 8 1000.6 - -
27/03:20pm 28.8 - - - - SSE 15 - 8 - - 1000.8 -
27/03:00pm 29.2 - - - - SSE 13 15 7 8 1000.8 - -
27/02:30pm 29.0 - - - - SSE 11 13 6 7 1001.1 - -
27/02:20pm 29.0 - - - - SSE 13 - 7 - - 1001.1 -
27/02:00pm 28.9 - - - - S 11 15 6 8 1001.2 - -
27/01:30pm 29.1 - - - - S 7 9 4 5 1001.6 - -
27/01:20pm 29.1 - - - - S 9 - 5 - - 1001.8 -
27/01:00pm 29.1 - - - - S 9 11 5 6 1002.1 - -
27/12:30pm 29.1 - - - - SSE 9 11 5 6 1002.2 - -
27/12:20pm 29.0 - - - - SSE 7 - 4 - - 1002.4 -
27/12:00pm 29.4 - - - - SSW 9 11 5 6 1002.6 - -
27/11:30am 29.8 - - - - SSW 9 11 5 6 1002.9 - -
27/11:20am 29.5 - - - - SSW 9 - 5 - - 1003.2 -
27/11:00am 29.2 - - - - S 9 11 5 6 1003.5 - -
27/10:30am 29.7 - - - - SSW 11 13 6 7 1003.8 - -
27/10:20am 29.8 - - - - SW 11 - 6 - - 1003.8 -
27/10:00am 29.1 - - - - W 13 15 7 8 1004.0 - -
27/09:30am 29.1 - - - - W 11 13 6 7 1004.0 - -
27/09:20am 29.1 - - - - W 11 - 6 - - 1003.8 -
27/09:00am 28.8 - - - - WNW 9 11 5 6 1003.5 - -
27/08:30am 29.2 - - - - CALM 0 0 0 0 1003.2 - -
27/08:20am 28.9 - - - - CALM 0 - 0 - - 1003.1 -
27/08:00am 29.1 - - - - CALM 0 6 0 3 1003.0 - -
27/07:30am 28.8 - - - - N 2 6 1 3 1002.9 - -
27/07:20am 28.7 - - - - CALM 0 - 0 - - 1003.0 -
27/07:00am 28.7 - - - - CALM 0 0 0 0 1003.2 - -
27/06:30am 29.3 - - - - CALM 0 6 0 3 1003.0 - -
27/06:20am 29.1 - - - - CALM 0 - 0 - - 1002.9 -
27/06:00am 28.2 - - - - CALM 0 2 0 1 1002.9 - -
27/05:30am 27.8 - - - - CALM 0 2 0 1 1002.7 - -
27/05:20am 27.8 - - - - WNW 4 - 2 - - 1002.7 -
27/05:00am 27.9 - - - - WNW 6 7 3 4 1002.7 - -
27/04:30am 27.9 - - - - NW 6 9 3 5 1002.4 - -
27/04:20am 27.9 - - - - NW 7 - 4 - - 1002.3 -
27/04:00am 27.9 - - - - NNW 9 11 5 6 1002.1 - -
27/03:30am 28.0 - - - - NW 7 9 4 5 1002.3 - -
27/03:20am 27.9 - - - - NW 9 - 5 - - 1002.3 -
27/03:00am 27.9 - - - - NNW 9 11 5 6 1002.4 - -
27/02:30am 28.0 - - - - NNW 11 15 6 8 1002.5 - -
27/02:20am 27.9 - - - - N 11 - 6 - - 1002.4 -
27/02:00am 27.9 - - - - N 11 13 6 7 1002.6 - -
27/01:30am 28.0 - - - - N 9 11 5 6 1002.9 - -
27/01:20am 28.0 - - - - NNE 7 - 4 - - 1003.2 -
27/01:00am 28.0 - - - - NNE 7 9 4 5 1003.1 - -
27/12:30am 28.0 - - - - NNE 9 11 5 6 1003.1 - -
27/12:20am 28.1 - - - - NNE 9 - 5 - - 1003.2 -
27/12:00am 28.1 - - - - NNE 11 13 6 7 1003.3 - -
 
Date/Time
EST
Temp
°C
App
Temp
°C
Dew
Point
Rel
Hum
%
Delta-T
°C
Wind Press
QNH
hPa
Press
MSL
hPa
Rain
since 9 am
mm
Dir
 
Spd
km/h
Gust
km/h
Spd
kts
Gust
kts
26/11:30pm 28.2 - - - - NNE 11 11 6 6 1003.6 - -
26/11:20pm 28.2 - - - - NE 11 - 6 - - 1003.6 -
26/11:00pm 28.3 - - - - NE 11 11 6 6 1004.0 - -
26/10:30pm 28.4 - - - - CALM 0 6 0 3 1004.4 - -
26/10:20pm 28.3 - - - - ESE 4 - 2 - - 1004.4 -
26/10:00pm 28.4 - - - - ESE 4 6 2 3 1004.4 - -
26/09:30pm 28.4 - - - - E 6 6 3 3 1004.0 - -
26/09:20pm 28.4 - - - - ENE 6 - 3 - - 1003.9 -
26/09:00pm 28.5 - - - - ENE 6 7 3 4 1003.6 - -
26/08:30pm 28.6 - - - - ENE 9 11 5 6 1003.5 - -
26/08:20pm 28.5 - - - - NE 9 - 5 - - 1003.5 -
26/08:00pm 28.6 - - - - NE 9 11 5 6 1003.4 - -
26/07:30pm 28.7 - - - - NNE 7 7 4 4 1003.4 - -
26/07:20pm 28.7 - - - - NNE 6 - 3 - - 1003.3 -
26/07:00pm 28.7 - - - - NNE 7 9 4 5 1003.1 - -
26/06:30pm 28.8 - - - - N 7 9 4 5 1003.1 - -
26/06:20pm 28.8 - - - - N 7 - 4 - - 1003.1 -
26/06:00pm 28.8 - - - - NNW 2 7 1 4 1003.0 - -
26/05:30pm 29.2 - - - - CALM 0 0 0 0 1002.7 - -
26/05:20pm 29.0 - - - - NW 2 - 1 - - 1002.6 -
26/05:00pm 29.4 - - - - WNW 6 7 3 4 1002.4 - -
26/04:30pm 29.9 - - - - CALM 0 0 0 0 1002.5 - -
26/04:20pm 30.4 - - - - CALM 0 - 0 - - 1002.6 -
26/04:00pm 30.9 - - - - CALM 0 0 0 0 1002.8 - -
26/03:30pm 31.0 - - - - CALM 0 0 0 0 1003.0 - -
26/03:20pm 30.5 - - - - CALM 0 - 0 - - 1003.1 -
26/03:00pm 29.9 - - - - CALM 0 0 0 0 1003.2 - -
26/02:30pm 29.4 - - - - WNW 7 9 4 5 1003.3 - -
26/02:20pm 29.5 - - - - W 7 - 4 - - 1003.3 -
26/02:00pm 30.1 - - - - W 7 9 4 5 1003.4 - -
26/01:30pm 29.7 - - - - W 9 11 5 6 1003.6 - -
26/01:20pm 30.0 - - - - W 7 - 4 - - 1003.6 -
26/01:00pm 29.7 - - - - WNW 7 9 4 5 1003.9 - -
26/12:30pm 28.8 - - - - WNW 11 13 6 7 1003.9 - -
26/12:20pm 29.0 - - - - WNW 13 - 7 - - 1004.0 -
26/12:00pm 28.7 - - - - NW 15 17 8 9 1004.1 - -
26/11:30am 28.8 - - - - NW 15 17 8 9 1004.3 - -
26/11:20am 28.7 - - - - NW 15 - 8 - - 1004.4 -
26/11:00am 28.8 - - - - NNW 13 15 7 8 1004.5 - -
26/10:30am 28.9 - - - - NNW 17 19 9 10 1004.7 - -
26/10:20am 28.8 - - - - NNW 17 - 9 - - 1004.8 -
26/10:00am 28.7 - - - - NNW 15 17 8 9 1005.1 - -
26/09:30am 28.8 - - - - NW 11 13 6 7 1005.1 - -
26/09:20am 28.8 - - - - WNW 13 - 7 - - 1005.1 -
26/09:00am 28.7 - - - - NNW 17 19 9 10 1005.2 - -
26/08:30am 28.7 - - - - NNW 17 19 9 10 1005.2 - -
26/08:20am 28.7 - - - - NNW 17 - 9 - - 1005.3 -
26/08:00am 28.6 - - - - NNW 19 22 10 12 1005.3 - -
26/07:30am 28.6 - - - - NNW 17 20 9 11 1005.3 - -
26/07:20am 28.5 - - - - NNW 13 - 7 - - 1005.4 -
26/07:00am 28.5 - - - - NW 15 17 8 9 1005.2 - -
26/06:30am 28.6 - - - - NW 22 26 12 14 1005.0 - -
26/06:20am 28.5 - - - - NNW 22 - 12 - - 1004.8 -
26/06:00am 28.5 - - - - NW 24 28 13 15 1004.7 - -
26/05:30am 28.5 - - - - WNW 24 28 13 15 1004.5 - -
26/05:20am 28.5 - - - - WNW 26 - 14 - - 1004.6 -
26/05:00am 28.4 - - - - WNW 26 30 14 16 1004.4 - -
26/04:30am 28.4 - - - - WNW 26 30 14 16 1004.3 - -
26/04:20am 28.4 - - - - W 24 - 13 - - 1004.3 -
26/04:00am 28.3 - - - - NW 30 33 16 18 1004.3 - -
26/03:30am 28.3 - - - - NW 28 35 15 19 1004.2 - -
26/03:20am 28.3 - - - - NW 28 - 15 - - 1004.3 -
26/03:00am 28.3 - - - - NNW 26 30 14 16 1004.4 - -
26/02:30am 28.4 - - - - NNW 30 33 16 18 1004.9 - -
26/02:20am 28.4 - - - - NW 30 - 16 - - 1004.9 -
26/02:00am 28.4 - - - - NNW 28 33 15 18 1005.1 - -
26/01:30am 28.3 - - - - NNW 28 33 15 18 1005.2 - -
26/01:20am 28.3 - - - - NNW 28 - 15 - - 1005.1 -
26/01:00am 28.3 - - - - NNW 28 32 15 17 1005.3 - -
26/12:30am 28.4 - - - - NNW 30 35 16 19 1005.5 - -
26/12:20am 28.4 - - - - NNW 33 - 18 - - 1005.5 -
26/12:00am 28.4 - - - - NNW 28 33 15 18 1005.7 - -
 
Date/Time
EST
Temp
°C
App
Temp
°C
Dew
Point
Rel
Hum
%
Delta-T
°C
Wind Press
QNH
hPa
Press
MSL
hPa
Rain
since 9 am
mm
Dir
 
Spd
km/h
Gust
km/h
Spd
kts
Gust
kts
25/11:30pm 28.5 - - - - NNW 32 35 17 19 1006.0 - -
25/11:20pm 28.6 - - - - NNW 33 - 18 - - 1006.1 -
25/11:00pm 28.6 - - - - NNW 32 39 17 21 1006.6 - -
25/10:30pm 28.6 - - - - NNW 32 37 17 20 1006.5 - -
25/10:20pm 28.6 - - - - NNW 30 - 16 - - 1006.4 -
25/10:00pm 28.7 - - - - NNW 33 39 18 21 1006.0 - -
25/09:30pm 28.6 - - - - NNW 30 35 16 19 1005.8 - -
25/09:20pm 28.7 - - - - NNW 30 - 16 - - 1005.8 -
25/09:00pm 28.6 - - - - NNW 30 33 16 18 1005.8 - -
25/08:30pm 28.6 - - - - NW 28 32 15 17 1006.0 - -
25/08:20pm 28.5 - - - - NW 28 - 15 - - 1006.1 -
25/08:00pm 28.6 - - - - NW 28 32 15 17 1006.2 - -
25/07:30pm 28.5 - - - - NNW 26 30 14 16 1006.0 - -
25/07:20pm 28.6 - - - - NNW 26 - 14 - - 1006.1 -
25/07:00pm 28.5 - - - - NNW 24 30 13 16 1005.9 - -
25/06:30pm 28.7 - - - - NNW 24 28 13 15 1005.5 - -
25/06:20pm 28.7 - - - - NNW 24 - 13 - - 1005.4 -
25/06:00pm 28.8 - - - - NNW 24 28 13 15 1004.8 - -
25/05:30pm 28.8 - - - - NNW 20 22 11 12 1004.4 - -
25/05:20pm 28.9 - - - - NNW 19 - 10 - - 1004.3 -
25/05:00pm 28.9 - - - - NW 20 24 11 13 1004.2 - -
25/04:30pm 29.0 - - - - NNW 22 24 12 13 1004.1 - -
25/04:20pm 28.9 - - - - NNW 22 - 12 - - 1004.0 -
25/04:00pm 29.0 - - - - NNW 24 28 13 15 1003.9 - -
25/03:30pm 29.0 - - - - NNW 24 30 13 16 1004.1 - -
25/03:20pm 29.0 - - - - NNW 26 - 14 - - 1004.3 -
25/03:00pm 29.0 - - - - NW 26 28 14 15 1004.7 - -
25/02:30pm 29.0 - - - - NNW 26 30 14 16 1005.1 - -
25/02:20pm 29.0 - - - - NNW 26 - 14 - - 1005.2 -
25/02:00pm 29.0 - - - - NW 22 24 12 13 1005.5 - -
25/01:30pm 29.1 - - - - NNW 24 26 13 14 1005.6 - -
25/01:20pm 29.1 - - - - NNW 22 - 12 - - 1005.6 -
25/01:00pm 29.0 - - - - NNW 22 26 12 14 1005.8 - -
25/12:30pm 28.9 - - - - NW 22 26 12 14 1006.1 - -
25/12:20pm 28.9 - - - - NW 22 - 12 - - 1006.3 -
25/12:00pm 28.9 - - - - NW 26 30 14 16 1006.5 - -
25/11:30am 29.0 - - - - NW 26 30 14 16 1007.0 - -
25/11:20am 29.0 - - - - NW 22 - 12 - - 1007.0 -

Other Formats:

Comma delimited format used in spreadsheet applications
http://www.bom.gov.au/fwo/IDQ60801/IDQ60801.94371.axf

JavaScript Object Notation format (JSON) in row-major order
http://www.bom.gov.au/fwo/IDQ60801/IDQ60801.94371.json